sensor_id;sensor_type;location;lat;lon;timestamp;P1;durP1;ratioP1;P2;durP2;ratioP2
17235;SDS011;8734;59.272;17.780;2022-09-16T00:01:10;3.20;;;0.60;;
17235;SDS011;8734;59.272;17.780;2022-09-16T00:03:40;2.43;;;0.57;;
17235;SDS011;8734;59.272;17.780;2022-09-16T00:06:16;2.30;;;0.70;;
17235;SDS011;8734;59.272;17.780;2022-09-16T00:08:47;1.57;;;0.60;;
17235;SDS011;8734;59.272;17.780;2022-09-16T00:11:16;2.40;;;0.77;;
17235;SDS011;8734;59.272;17.780;2022-09-16T00:13:44;1.60;;;0.70;;
17235;SDS011;8734;59.272;17.780;2022-09-16T00:16:15;4.00;;;0.70;;
17235;SDS011;8734;59.272;17.780;2022-09-16T00:18:45;0.73;;;0.63;;
17235;SDS011;8734;59.272;17.780;2022-09-16T00:21:15;1.20;;;0.60;;
17235;SDS011;8734;59.272;17.780;2022-09-16T00:23:44;3.87;;;0.70;;
17235;SDS011;8734;59.272;17.780;2022-09-16T00:26:12;1.43;;;0.53;;
17235;SDS011;8734;59.272;17.780;2022-09-16T00:28:41;0.63;;;0.60;;
17235;SDS011;8734;59.272;17.780;2022-09-16T00:31:09;1.17;;;0.60;;
17235;SDS011;8734;59.272;17.780;2022-09-16T00:33:37;3.87;;;0.70;;
17235;SDS011;8734;59.272;17.780;2022-09-16T00:36:06;4.00;;;0.67;;
17235;SDS011;8734;59.272;17.780;2022-09-16T00:38:37;0.83;;;0.63;;
17235;SDS011;8734;59.272;17.780;2022-09-16T00:41:06;3.27;;;1.00;;
17235;SDS011;8734;59.272;17.780;2022-09-16T00:43:45;10.30;;;1.10;;
17235;SDS011;8734;59.272;17.780;2022-09-16T00:46:16;4.50;;;0.70;;
17235;SDS011;8734;59.272;17.780;2022-09-16T00:48:49;3.37;;;0.77;;
17235;SDS011;8734;59.272;17.780;2022-09-16T00:51:18;0.83;;;0.53;;
17235;SDS011;8734;59.272;17.780;2022-09-16T00:53:49;1.87;;;0.90;;
17235;SDS011;8734;59.272;17.780;2022-09-16T00:56:23;1.00;;;0.90;;
17235;SDS011;8734;59.272;17.780;2022-09-16T00:58:54;4.90;;;1.13;;
17235;SDS011;8734;59.272;17.780;2022-09-16T01:01:28;1.27;;;0.70;;
17235;SDS011;8734;59.272;17.780;2022-09-16T01:03:57;0.70;;;0.70;;
17235;SDS011;8734;59.272;17.780;2022-09-16T01:06:29;0.90;;;0.70;;
17235;SDS011;8734;59.272;17.780;2022-09-16T01:09:00;3.10;;;0.80;;
17235;SDS011;8734;59.272;17.780;2022-09-16T01:11:28;0.87;;;0.60;;
17235;SDS011;8734;59.272;17.780;2022-09-16T01:13:57;1.63;;;0.77;;
17235;SDS011;8734;59.272;17.780;2022-09-16T01:16:48;1.90;;;0.60;;
17235;SDS011;8734;59.272;17.780;2022-09-16T01:19:30;1.70;;;0.80;;
17235;SDS011;8734;59.272;17.780;2022-09-16T01:22:12;0.70;;;0.70;;
17235;SDS011;8734;59.272;17.780;2022-09-16T01:24:53;1.97;;;0.87;;
17235;SDS011;8734;59.272;17.780;2022-09-16T01:27:32;0.60;;;0.60;;
17235;SDS011;8734;59.272;17.780;2022-09-16T01:30:32;1.20;;;0.80;;
17235;SDS011;8734;59.272;17.780;2022-09-16T01:33:12;1.10;;;0.60;;
17235;SDS011;8734;59.272;17.780;2022-09-16T01:36:01;2.40;;;0.70;;
17235;SDS011;8734;59.272;17.780;2022-09-16T01:38:41;1.00;;;0.60;;
17235;SDS011;8734;59.272;17.780;2022-09-16T01:41:22;0.77;;;0.77;;
17235;SDS011;8734;59.272;17.780;2022-09-16T01:43:56;0.80;;;0.80;;
17235;SDS011;8734;59.272;17.780;2022-09-16T01:46:33;2.17;;;1.10;;
17235;SDS011;8734;59.272;17.780;2022-09-16T01:49:12;1.60;;;0.87;;
17235;SDS011;8734;59.272;17.780;2022-09-16T01:51:48;2.87;;;0.93;;
17235;SDS011;8734;59.272;17.780;2022-09-16T01:54:22;2.37;;;1.00;;
17235;SDS011;8734;59.272;17.780;2022-09-16T01:56:56;1.47;;;1.10;;
17235;SDS011;8734;59.272;17.780;2022-09-16T01:59:31;1.30;;;1.20;;
17235;SDS011;8734;59.272;17.780;2022-09-16T02:02:08;8.93;;;1.40;;
17235;SDS011;8734;59.272;17.780;2022-09-16T02:04:43;1.27;;;0.90;;
17235;SDS011;8734;59.272;17.780;2022-09-16T02:07:16;0.90;;;0.90;;
17235;SDS011;8734;59.272;17.780;2022-09-16T02:09:48;5.03;;;1.23;;
17235;SDS011;8734;59.272;17.780;2022-09-16T02:12:23;1.40;;;1.30;;
17235;SDS011;8734;59.272;17.780;2022-09-16T02:14:56;3.00;;;1.60;;
17235;SDS011;8734;59.272;17.780;2022-09-16T02:17:31;1.87;;;1.67;;
17235;SDS011;8734;59.272;17.780;2022-09-16T02:20:02;2.43;;;1.50;;
17235;SDS011;8734;59.272;17.780;2022-09-16T02:22:35;2.80;;;1.43;;
17235;SDS011;8734;59.272;17.780;2022-09-16T02:25:07;2.97;;;1.57;;
17235;SDS011;8734;59.272;17.780;2022-09-16T02:27:38;6.07;;;1.40;;
17235;SDS011;8734;59.272;17.780;2022-09-16T02:30:09;1.67;;;1.33;;
17235;SDS011;8734;59.272;17.780;2022-09-16T02:32:44;2.40;;;1.30;;
17235;SDS011;8734;59.272;17.780;2022-09-16T02:35:17;1.60;;;1.30;;
17235;SDS011;8734;59.272;17.780;2022-09-16T02:37:48;1.20;;;1.10;;
17235;SDS011;8734;59.272;17.780;2022-09-16T02:40:21;0.80;;;0.80;;
17235;SDS011;8734;59.272;17.780;2022-09-16T02:42:53;4.30;;;1.10;;
17235;SDS011;8734;59.272;17.780;2022-09-16T02:45:24;5.50;;;1.20;;
17235;SDS011;8734;59.272;17.780;2022-09-16T02:48:05;2.63;;;1.00;;
17235;SDS011;8734;59.272;17.780;2022-09-16T02:50:40;1.40;;;1.13;;
17235;SDS011;8734;59.272;17.780;2022-09-16T02:53:13;1.20;;;1.10;;
17235;SDS011;8734;59.272;17.780;2022-09-16T02:55:52;4.33;;;1.20;;
17235;SDS011;8734;59.272;17.780;2022-09-16T02:58:23;1.47;;;1.07;;
17235;SDS011;8734;59.272;17.780;2022-09-16T03:00:52;1.57;;;1.17;;
17235;SDS011;8734;59.272;17.780;2022-09-16T03:03:23;1.10;;;1.00;;
17235;SDS011;8734;59.272;17.780;2022-09-16T03:08:47;1.20;;;1.13;;
17235;SDS011;8734;59.272;17.780;2022-09-16T03:11:28;1.30;;;1.17;;
17235;SDS011;8734;59.272;17.780;2022-09-16T03:14:30;2.10;;;1.27;;
17235;SDS011;8734;59.272;17.780;2022-09-16T03:17:14;4.97;;;2.10;;
17235;SDS011;8734;59.272;17.780;2022-09-16T03:19:54;6.40;;;1.67;;
17235;SDS011;8734;59.272;17.780;2022-09-16T03:22:34;3.43;;;2.00;;
17235;SDS011;8734;59.272;17.780;2022-09-16T03:25:12;3.47;;;1.90;;
17235;SDS011;8734;59.272;17.780;2022-09-16T03:27:50;3.53;;;1.80;;
17235;SDS011;8734;59.272;17.780;2022-09-16T03:30:24;2.83;;;1.93;;
17235;SDS011;8734;59.272;17.780;2022-09-16T03:32:53;3.50;;;2.07;;
17235;SDS011;8734;59.272;17.780;2022-09-16T03:35:26;2.37;;;1.80;;
17235;SDS011;8734;59.272;17.780;2022-09-16T03:37:59;4.03;;;1.70;;
17235;SDS011;8734;59.272;17.780;2022-09-16T03:40:28;3.83;;;2.20;;
17235;SDS011;8734;59.272;17.780;2022-09-16T03:43:00;2.63;;;1.60;;
17235;SDS011;8734;59.272;17.780;2022-09-16T03:45:37;3.27;;;2.07;;
17235;SDS011;8734;59.272;17.780;2022-09-16T03:48:08;2.30;;;2.03;;
17235;SDS011;8734;59.272;17.780;2022-09-16T03:50:39;4.77;;;2.37;;
17235;SDS011;8734;59.272;17.780;2022-09-16T03:53:07;4.07;;;3.13;;
17235;SDS011;8734;59.272;17.780;2022-09-16T03:55:36;4.23;;;3.43;;
17235;SDS011;8734;59.272;17.780;2022-09-16T03:58:04;8.10;;;3.73;;
17235;SDS011;8734;59.272;17.780;2022-09-16T04:00:32;4.93;;;3.50;;
17235;SDS011;8734;59.272;17.780;2022-09-16T04:03:01;6.30;;;3.50;;
17235;SDS011;8734;59.272;17.780;2022-09-16T04:05:30;4.27;;;3.40;;
17235;SDS011;8734;59.272;17.780;2022-09-16T04:07:59;4.23;;;3.37;;
17235;SDS011;8734;59.272;17.780;2022-09-16T04:10:28;6.20;;;3.73;;
17235;SDS011;8734;59.272;17.780;2022-09-16T04:12:56;4.67;;;3.50;;
17235;SDS011;8734;59.272;17.780;2022-09-16T04:15:25;4.43;;;3.30;;
17235;SDS011;8734;59.272;17.780;2022-09-16T04:17:53;3.90;;;3.33;;
17235;SDS011;8734;59.272;17.780;2022-09-16T04:20:22;5.03;;;3.07;;
17235;SDS011;8734;59.272;17.780;2022-09-16T04:22:50;3.20;;;2.90;;
17235;SDS011;8734;59.272;17.780;2022-09-16T04:25:20;6.93;;;2.60;;
17235;SDS011;8734;59.272;17.780;2022-09-16T04:27:48;3.00;;;2.30;;
17235;SDS011;8734;59.272;17.780;2022-09-16T04:30:16;6.10;;;2.40;;
17235;SDS011;8734;59.272;17.780;2022-09-16T04:32:45;3.40;;;2.30;;
17235;SDS011;8734;59.272;17.780;2022-09-16T04:35:14;3.47;;;2.17;;
17235;SDS011;8734;59.272;17.780;2022-09-16T04:37:44;4.60;;;2.40;;
17235;SDS011;8734;59.272;17.780;2022-09-16T04:40:13;2.30;;;2.10;;
17235;SDS011;8734;59.272;17.780;2022-09-16T04:42:48;2.27;;;2.07;;
17235;SDS011;8734;59.272;17.780;2022-09-16T04:45:16;3.90;;;2.77;;
17235;SDS011;8734;59.272;17.780;2022-09-16T04:47:45;2.37;;;2.10;;
17235;SDS011;8734;59.272;17.780;2022-09-16T04:50:13;4.80;;;2.47;;
17235;SDS011;8734;59.272;17.780;2022-09-16T04:52:42;3.00;;;2.60;;
17235;SDS011;8734;59.272;17.780;2022-09-16T04:55:10;3.27;;;1.97;;
17235;SDS011;8734;59.272;17.780;2022-09-16T04:57:38;3.33;;;2.30;;
17235;SDS011;8734;59.272;17.780;2022-09-16T05:00:09;3.97;;;2.63;;
17235;SDS011;8734;59.272;17.780;2022-09-16T05:02:38;2.93;;;2.63;;
17235;SDS011;8734;59.272;17.780;2022-09-16T05:05:07;4.43;;;3.00;;
17235;SDS011;8734;59.272;17.780;2022-09-16T05:07:35;3.90;;;2.80;;
17235;SDS011;8734;59.272;17.780;2022-09-16T05:10:04;4.63;;;2.70;;
17235;SDS011;8734;59.272;17.780;2022-09-16T05:12:32;5.27;;;2.17;;
17235;SDS011;8734;59.272;17.780;2022-09-16T05:15:01;5.93;;;2.77;;
17235;SDS011;8734;59.272;17.780;2022-09-16T05:17:31;5.47;;;2.70;;
17235;SDS011;8734;59.272;17.780;2022-09-16T05:20:17;4.03;;;3.27;;
17235;SDS011;8734;59.272;17.780;2022-09-16T05:22:47;5.93;;;2.83;;
17235;SDS011;8734;59.272;17.780;2022-09-16T05:25:16;6.03;;;2.73;;
17235;SDS011;8734;59.272;17.780;2022-09-16T05:27:45;4.07;;;2.80;;
17235;SDS011;8734;59.272;17.780;2022-09-16T05:30:14;4.27;;;2.60;;
17235;SDS011;8734;59.272;17.780;2022-09-16T05:32:44;7.00;;;2.50;;
17235;SDS011;8734;59.272;17.780;2022-09-16T05:35:12;2.50;;;2.17;;
17235;SDS011;8734;59.272;17.780;2022-09-16T05:37:41;3.47;;;2.00;;
17235;SDS011;8734;59.272;17.780;2022-09-16T05:40:09;4.93;;;2.20;;
17235;SDS011;8734;59.272;17.780;2022-09-16T05:42:37;2.17;;;1.80;;
17235;SDS011;8734;59.272;17.780;2022-09-16T05:45:06;1.93;;;1.70;;
17235;SDS011;8734;59.272;17.780;2022-09-16T05:47:35;1.63;;;1.30;;
17235;SDS011;8734;59.272;17.780;2022-09-16T05:50:05;2.43;;;1.70;;
17235;SDS011;8734;59.272;17.780;2022-09-16T05:52:34;1.53;;;1.30;;
17235;SDS011;8734;59.272;17.780;2022-09-16T05:55:03;2.10;;;1.60;;
17235;SDS011;8734;59.272;17.780;2022-09-16T05:57:32;2.27;;;1.60;;
17235;SDS011;8734;59.272;17.780;2022-09-16T06:00:00;1.77;;;1.60;;
17235;SDS011;8734;59.272;17.780;2022-09-16T06:02:29;5.60;;;1.47;;
17235;SDS011;8734;59.272;17.780;2022-09-16T06:04:57;1.60;;;1.50;;
17235;SDS011;8734;59.272;17.780;2022-09-16T06:07:27;3.13;;;1.80;;
17235;SDS011;8734;59.272;17.780;2022-09-16T06:09:55;1.93;;;1.50;;
17235;SDS011;8734;59.272;17.780;2022-09-16T06:12:24;4.33;;;1.40;;
17235;SDS011;8734;59.272;17.780;2022-09-16T06:14:52;1.43;;;1.30;;
17235;SDS011;8734;59.272;17.780;2022-09-16T06:17:20;2.87;;;1.43;;
17235;SDS011;8734;59.272;17.780;2022-09-16T06:19:49;3.27;;;1.30;;
17235;SDS011;8734;59.272;17.780;2022-09-16T06:22:17;1.83;;;1.23;;
17235;SDS011;8734;59.272;17.780;2022-09-16T06:24:47;1.80;;;1.30;;
17235;SDS011;8734;59.272;17.780;2022-09-16T06:27:15;2.07;;;1.10;;
17235;SDS011;8734;59.272;17.780;2022-09-16T06:29:44;1.10;;;1.10;;
17235;SDS011;8734;59.272;17.780;2022-09-16T06:32:12;1.50;;;1.30;;
17235;SDS011;8734;59.272;17.780;2022-09-16T06:34:40;1.00;;;1.00;;
17235;SDS011;8734;59.272;17.780;2022-09-16T06:37:09;2.43;;;1.00;;
17235;SDS011;8734;59.272;17.780;2022-09-16T06:39:38;2.10;;;1.00;;
17235;SDS011;8734;59.272;17.780;2022-09-16T06:42:09;2.53;;;0.90;;
17235;SDS011;8734;59.272;17.780;2022-09-16T06:44:38;1.23;;;1.00;;
17235;SDS011;8734;59.272;17.780;2022-09-16T06:47:06;4.53;;;1.10;;
17235;SDS011;8734;59.272;17.780;2022-09-16T06:49:34;1.10;;;1.00;;
17235;SDS011;8734;59.272;17.780;2022-09-16T06:52:03;1.77;;;1.20;;
17235;SDS011;8734;59.272;17.780;2022-09-16T06:54:31;4.37;;;1.40;;
17235;SDS011;8734;59.272;17.780;2022-09-16T06:56:59;1.30;;;1.20;;
17235;SDS011;8734;59.272;17.780;2022-09-16T06:59:29;4.13;;;1.30;;
17235;SDS011;8734;59.272;17.780;2022-09-16T07:01:58;1.37;;;1.27;;
17235;SDS011;8734;59.272;17.780;2022-09-16T07:04:27;5.27;;;1.63;;
17235;SDS011;8734;59.272;17.780;2022-09-16T07:06:56;1.30;;;1.20;;
17235;SDS011;8734;59.272;17.780;2022-09-16T07:09:40;2.53;;;1.50;;
17235;SDS011;8734;59.272;17.780;2022-09-16T07:12:08;1.60;;;1.50;;
17235;SDS011;8734;59.272;17.780;2022-09-16T07:14:41;1.83;;;1.67;;
17235;SDS011;8734;59.272;17.780;2022-09-16T07:17:10;3.17;;;1.70;;
17235;SDS011;8734;59.272;17.780;2022-09-16T07:19:38;1.70;;;1.60;;
17235;SDS011;8734;59.272;17.780;2022-09-16T07:22:07;2.03;;;1.40;;
17235;SDS011;8734;59.272;17.780;2022-09-16T07:24:37;1.50;;;1.40;;
17235;SDS011;8734;59.272;17.780;2022-09-16T07:27:05;2.80;;;1.20;;
17235;SDS011;8734;59.272;17.780;2022-09-16T07:29:33;3.80;;;1.30;;
17235;SDS011;8734;59.272;17.780;2022-09-16T07:32:03;1.07;;;1.00;;
17235;SDS011;8734;59.272;17.780;2022-09-16T07:34:31;1.83;;;1.30;;
17235;SDS011;8734;59.272;17.780;2022-09-16T07:37:00;2.70;;;1.03;;
17235;SDS011;8734;59.272;17.780;2022-09-16T07:39:28;2.27;;;1.10;;
17235;SDS011;8734;59.272;17.780;2022-09-16T07:41:56;2.30;;;1.20;;
17235;SDS011;8734;59.272;17.780;2022-09-16T07:44:31;1.30;;;1.17;;
17235;SDS011;8734;59.272;17.780;2022-09-16T07:47:00;1.00;;;1.00;;
17235;SDS011;8734;59.272;17.780;2022-09-16T07:49:30;0.97;;;0.97;;
17235;SDS011;8734;59.272;17.780;2022-09-16T07:51:58;1.77;;;1.10;;
17235;SDS011;8734;59.272;17.780;2022-09-16T07:54:27;1.13;;;1.03;;
17235;SDS011;8734;59.272;17.780;2022-09-16T07:56:55;6.20;;;2.23;;
17235;SDS011;8734;59.272;17.780;2022-09-16T07:59:24;7.60;;;2.50;;
17235;SDS011;8734;59.272;17.780;2022-09-16T08:01:52;1.27;;;1.17;;
17235;SDS011;8734;59.272;17.780;2022-09-16T08:04:22;1.17;;;1.07;;
17235;SDS011;8734;59.272;17.780;2022-09-16T08:06:51;1.37;;;1.07;;
17235;SDS011;8734;59.272;17.780;2022-09-16T08:09:19;3.03;;;0.90;;
17235;SDS011;8734;59.272;17.780;2022-09-16T08:12:08;3.43;;;1.10;;
17235;SDS011;8734;59.272;17.780;2022-09-16T08:14:38;1.40;;;0.90;;
17235;SDS011;8734;59.272;17.780;2022-09-16T08:17:06;0.90;;;0.90;;
17235;SDS011;8734;59.272;17.780;2022-09-16T08:19:35;1.43;;;1.00;;
17235;SDS011;8734;59.272;17.780;2022-09-16T08:22:05;1.13;;;0.83;;
17235;SDS011;8734;59.272;17.780;2022-09-16T08:24:33;4.63;;;1.10;;
17235;SDS011;8734;59.272;17.780;2022-09-16T08:27:02;0.80;;;0.80;;
17235;SDS011;8734;59.272;17.780;2022-09-16T08:29:30;3.10;;;1.07;;
17235;SDS011;8734;59.272;17.780;2022-09-16T08:31:58;1.90;;;0.80;;
17235;SDS011;8734;59.272;17.780;2022-09-16T08:34:27;1.83;;;0.90;;
17235;SDS011;8734;59.272;17.780;2022-09-16T08:36:57;1.10;;;1.00;;
17235;SDS011;8734;59.272;17.780;2022-09-16T08:39:25;1.67;;;0.70;;
17235;SDS011;8734;59.272;17.780;2022-09-16T08:41:59;0.80;;;0.80;;
17235;SDS011;8734;59.272;17.780;2022-09-16T08:44:40;0.90;;;0.80;;
17235;SDS011;8734;59.272;17.780;2022-09-16T08:47:21;1.20;;;0.80;;
17235;SDS011;8734;59.272;17.780;2022-09-16T08:49:57;3.20;;;0.80;;
17235;SDS011;8734;59.272;17.780;2022-09-16T08:52:30;2.13;;;0.87;;
17235;SDS011;8734;59.272;17.780;2022-09-16T08:55:02;2.10;;;1.10;;
17235;SDS011;8734;59.272;17.780;2022-09-16T08:57:34;1.10;;;1.00;;
17235;SDS011;8734;59.272;17.780;2022-09-16T09:00:09;0.80;;;0.80;;
17235;SDS011;8734;59.272;17.780;2022-09-16T09:02:41;0.60;;;0.60;;
17235;SDS011;8734;59.272;17.780;2022-09-16T09:05:18;0.63;;;0.63;;
17235;SDS011;8734;59.272;17.780;2022-09-16T09:07:59;1.53;;;1.00;;
17235;SDS011;8734;59.272;17.780;2022-09-16T09:10:38;1.33;;;0.70;;
17235;SDS011;8734;59.272;17.780;2022-09-16T09:13:12;1.73;;;0.73;;
17235;SDS011;8734;59.272;17.780;2022-09-16T09:15:53;2.73;;;0.80;;
17235;SDS011;8734;59.272;17.780;2022-09-16T09:18:32;1.30;;;0.80;;
17235;SDS011;8734;59.272;17.780;2022-09-16T09:21:10;1.03;;;0.80;;
17235;SDS011;8734;59.272;17.780;2022-09-16T09:23:57;1.10;;;0.80;;
17235;SDS011;8734;59.272;17.780;2022-09-16T09:26:43;3.10;;;0.80;;
17235;SDS011;8734;59.272;17.780;2022-09-16T09:29:24;0.70;;;0.70;;
17235;SDS011;8734;59.272;17.780;2022-09-16T09:32:07;0.80;;;0.80;;
17235;SDS011;8734;59.272;17.780;2022-09-16T09:34:47;2.90;;;0.67;;
17235;SDS011;8734;59.272;17.780;2022-09-16T09:37:31;4.13;;;0.70;;
17235;SDS011;8734;59.272;17.780;2022-09-16T09:40:12;0.57;;;0.57;;
17235;SDS011;8734;59.272;17.780;2022-09-16T09:42:44;0.80;;;0.80;;
17235;SDS011;8734;59.272;17.780;2022-09-16T09:45:18;2.27;;;0.83;;
17235;SDS011;8734;59.272;17.780;2022-09-16T09:47:51;2.67;;;0.40;;
17235;SDS011;8734;59.272;17.780;2022-09-16T09:50:24;5.00;;;0.50;;
17235;SDS011;8734;59.272;17.780;2022-09-16T09:52:58;0.80;;;0.80;;
17235;SDS011;8734;59.272;17.780;2022-09-16T09:55:35;0.67;;;0.67;;
17235;SDS011;8734;59.272;17.780;2022-09-16T09:58:07;2.67;;;0.70;;
17235;SDS011;8734;59.272;17.780;2022-09-16T10:00:42;0.70;;;0.70;;
17235;SDS011;8734;59.272;17.780;2022-09-16T10:03:12;0.87;;;0.70;;
17235;SDS011;8734;59.272;17.780;2022-09-16T10:05:43;1.33;;;0.77;;
17235;SDS011;8734;59.272;17.780;2022-09-16T10:08:16;0.83;;;0.70;;
17235;SDS011;8734;59.272;17.780;2022-09-16T10:10:51;1.27;;;0.80;;
17235;SDS011;8734;59.272;17.780;2022-09-16T10:13:21;1.07;;;0.80;;
17235;SDS011;8734;59.272;17.780;2022-09-16T10:15:52;0.60;;;0.60;;
17235;SDS011;8734;59.272;17.780;2022-09-16T10:18:33;1.00;;;0.63;;
17235;SDS011;8734;59.272;17.780;2022-09-16T10:21:03;0.73;;;0.67;;
17235;SDS011;8734;59.272;17.780;2022-09-16T10:23:33;2.80;;;0.90;;
17235;SDS011;8734;59.272;17.780;2022-09-16T10:26:13;0.60;;;0.60;;
17235;SDS011;8734;59.272;17.780;2022-09-16T10:28:55;1.63;;;0.70;;
17235;SDS011;8734;59.272;17.780;2022-09-16T10:31:25;2.67;;;0.73;;
17235;SDS011;8734;59.272;17.780;2022-09-16T10:34:00;1.33;;;0.90;;
17235;SDS011;8734;59.272;17.780;2022-09-16T10:36:31;0.63;;;0.63;;
17235;SDS011;8734;59.272;17.780;2022-09-16T10:39:01;0.60;;;0.60;;
17235;SDS011;8734;59.272;17.780;2022-09-16T10:41:33;2.90;;;0.70;;
17235;SDS011;8734;59.272;17.780;2022-09-16T10:44:12;0.50;;;0.50;;
17235;SDS011;8734;59.272;17.780;2022-09-16T10:46:49;1.60;;;0.70;;
17235;SDS011;8734;59.272;17.780;2022-09-16T10:49:24;0.80;;;0.43;;
17235;SDS011;8734;59.272;17.780;2022-09-16T10:52:05;1.70;;;0.60;;
17235;SDS011;8734;59.272;17.780;2022-09-16T10:54:35;0.80;;;0.60;;
17235;SDS011;8734;59.272;17.780;2022-09-16T10:57:18;0.93;;;0.70;;
17235;SDS011;8734;59.272;17.780;2022-09-16T10:59:56;1.23;;;0.40;;
17235;SDS011;8734;59.272;17.780;2022-09-16T11:02:38;0.67;;;0.40;;
17235;SDS011;8734;59.272;17.780;2022-09-16T11:05:17;0.60;;;0.60;;
17235;SDS011;8734;59.272;17.780;2022-09-16T11:07:54;0.47;;;0.47;;
17235;SDS011;8734;59.272;17.780;2022-09-16T11:10:34;0.60;;;0.40;;
17235;SDS011;8734;59.272;17.780;2022-09-16T11:13:15;0.50;;;0.50;;
17235;SDS011;8734;59.272;17.780;2022-09-16T11:15:52;3.60;;;0.50;;
17235;SDS011;8734;59.272;17.780;2022-09-16T11:18:37;0.73;;;0.40;;
17235;SDS011;8734;59.272;17.780;2022-09-16T11:24:32;1.30;;;0.57;;
17235;SDS011;8734;59.272;17.780;2022-09-16T11:27:16;1.43;;;0.50;;
17235;SDS011;8734;59.272;17.780;2022-09-16T11:30:06;0.40;;;0.40;;
17235;SDS011;8734;59.272;17.780;2022-09-16T11:32:54;0.33;;;0.33;;
17235;SDS011;8734;59.272;17.780;2022-09-16T11:35:55;1.87;;;0.60;;
17235;SDS011;8734;59.272;17.780;2022-09-16T11:38:34;1.83;;;0.50;;
17235;SDS011;8734;59.272;17.780;2022-09-16T11:41:13;0.83;;;0.40;;
17235;SDS011;8734;59.272;17.780;2022-09-16T11:43:51;0.30;;;0.30;;
17235;SDS011;8734;59.272;17.780;2022-09-16T11:46:32;0.53;;;0.50;;
17235;SDS011;8734;59.272;17.780;2022-09-16T11:49:15;0.50;;;0.50;;
17235;SDS011;8734;59.272;17.780;2022-09-16T11:52:00;0.50;;;0.40;;
17235;SDS011;8734;59.272;17.780;2022-09-16T11:54:44;0.53;;;0.40;;
17235;SDS011;8734;59.272;17.780;2022-09-16T11:57:23;0.43;;;0.40;;
17235;SDS011;8734;59.272;17.780;2022-09-16T11:59:56;0.97;;;0.37;;
17235;SDS011;8734;59.272;17.780;2022-09-16T12:02:29;0.77;;;0.40;;
17235;SDS011;8734;59.272;17.780;2022-09-16T12:05:16;3.97;;;0.57;;
17235;SDS011;8734;59.272;17.780;2022-09-16T12:07:47;1.30;;;0.50;;
17235;SDS011;8734;59.272;17.780;2022-09-16T12:10:20;0.83;;;0.50;;
17235;SDS011;8734;59.272;17.780;2022-09-16T12:12:52;0.40;;;0.40;;
17235;SDS011;8734;59.272;17.780;2022-09-16T12:15:25;0.70;;;0.50;;
17235;SDS011;8734;59.272;17.780;2022-09-16T12:17:57;0.77;;;0.40;;
17235;SDS011;8734;59.272;17.780;2022-09-16T12:20:30;1.40;;;0.47;;
17235;SDS011;8734;59.272;17.780;2022-09-16T12:23:03;0.33;;;0.33;;
17235;SDS011;8734;59.272;17.780;2022-09-16T12:25:37;1.30;;;0.50;;
17235;SDS011;8734;59.272;17.780;2022-09-16T12:28:12;0.47;;;0.43;;
17235;SDS011;8734;59.272;17.780;2022-09-16T12:30:46;1.70;;;0.50;;
17235;SDS011;8734;59.272;17.780;2022-09-16T12:33:21;0.80;;;0.40;;
17235;SDS011;8734;59.272;17.780;2022-09-16T12:35:54;1.23;;;0.40;;
17235;SDS011;8734;59.272;17.780;2022-09-16T12:38:24;0.67;;;0.40;;
17235;SDS011;8734;59.272;17.780;2022-09-16T12:41:01;3.43;;;0.50;;
17235;SDS011;8734;59.272;17.780;2022-09-16T12:47:06;1.13;;;0.40;;
17235;SDS011;8734;59.272;17.780;2022-09-16T12:49:56;0.23;;;0.23;;
17235;SDS011;8734;59.272;17.780;2022-09-16T12:52:52;0.43;;;0.40;;
17235;SDS011;8734;59.272;17.780;2022-09-16T12:55:47;1.20;;;0.50;;
17235;SDS011;8734;59.272;17.780;2022-09-16T12:58:38;2.83;;;0.50;;
17235;SDS011;8734;59.272;17.780;2022-09-16T13:01:24;0.50;;;0.50;;
17235;SDS011;8734;59.272;17.780;2022-09-16T13:03:57;0.93;;;0.40;;
17235;SDS011;8734;59.272;17.780;2022-09-16T13:06:31;3.90;;;0.43;;
17235;SDS011;8734;59.272;17.780;2022-09-16T13:09:10;0.50;;;0.50;;
17235;SDS011;8734;59.272;17.780;2022-09-16T13:11:50;0.50;;;0.50;;
17235;SDS011;8734;59.272;17.780;2022-09-16T13:14:43;1.40;;;0.40;;
17235;SDS011;8734;59.272;17.780;2022-09-16T13:17:13;0.70;;;0.60;;
17235;SDS011;8734;59.272;17.780;2022-09-16T13:19:44;0.70;;;0.60;;
17235;SDS011;8734;59.272;17.780;2022-09-16T13:22:20;0.87;;;0.50;;
17235;SDS011;8734;59.272;17.780;2022-09-16T13:24:54;0.50;;;0.50;;
17235;SDS011;8734;59.272;17.780;2022-09-16T13:27:32;1.63;;;0.40;;
17235;SDS011;8734;59.272;17.780;2022-09-16T13:30:14;0.60;;;0.60;;
17235;SDS011;8734;59.272;17.780;2022-09-16T13:32:57;0.50;;;0.50;;
17235;SDS011;8734;59.272;17.780;2022-09-16T13:35:43;2.57;;;0.60;;
17235;SDS011;8734;59.272;17.780;2022-09-16T13:38:36;4.53;;;0.50;;
17235;SDS011;8734;59.272;17.780;2022-09-16T13:41:07;0.40;;;0.40;;
17235;SDS011;8734;59.272;17.780;2022-09-16T13:43:48;0.63;;;0.50;;
17235;SDS011;8734;59.272;17.780;2022-09-16T13:46:26;0.80;;;0.60;;
17235;SDS011;8734;59.272;17.780;2022-09-16T13:51:49;1.97;;;0.70;;
17235;SDS011;8734;59.272;17.780;2022-09-16T13:54:24;1.80;;;0.60;;
17235;SDS011;8734;59.272;17.780;2022-09-16T13:56:58;2.87;;;0.70;;
17235;SDS011;8734;59.272;17.780;2022-09-16T13:59:46;1.03;;;0.90;;
17235;SDS011;8734;59.272;17.780;2022-09-16T14:02:32;1.37;;;0.80;;
17235;SDS011;8734;59.272;17.780;2022-09-16T14:08:12;1.40;;;0.93;;
17235;SDS011;8734;59.272;17.780;2022-09-16T14:10:49;0.73;;;0.70;;
17235;SDS011;8734;59.272;17.780;2022-09-16T14:13:24;0.70;;;0.70;;
17235;SDS011;8734;59.272;17.780;2022-09-16T14:16:02;1.27;;;0.90;;
17235;SDS011;8734;59.272;17.780;2022-09-16T14:18:31;0.80;;;0.80;;
17235;SDS011;8734;59.272;17.780;2022-09-16T14:21:01;0.70;;;0.70;;
17235;SDS011;8734;59.272;17.780;2022-09-16T14:23:32;0.70;;;0.70;;
17235;SDS011;8734;59.272;17.780;2022-09-16T14:26:09;0.73;;;0.70;;
17235;SDS011;8734;59.272;17.780;2022-09-16T14:28:39;0.90;;;0.57;;
17235;SDS011;8734;59.272;17.780;2022-09-16T14:31:08;0.60;;;0.60;;
17235;SDS011;8734;59.272;17.780;2022-09-16T14:33:41;0.70;;;0.70;;
17235;SDS011;8734;59.272;17.780;2022-09-16T14:36:13;1.47;;;0.63;;
17235;SDS011;8734;59.272;17.780;2022-09-16T14:38:47;1.00;;;0.80;;
17235;SDS011;8734;59.272;17.780;2022-09-16T14:41:23;0.70;;;0.70;;
17235;SDS011;8734;59.272;17.780;2022-09-16T14:43:56;0.80;;;0.80;;
17235;SDS011;8734;59.272;17.780;2022-09-16T14:46:38;0.83;;;0.80;;
17235;SDS011;8734;59.272;17.780;2022-09-16T14:49:09;2.33;;;0.97;;
17235;SDS011;8734;59.272;17.780;2022-09-16T14:51:38;3.70;;;0.90;;
17235;SDS011;8734;59.272;17.780;2022-09-16T14:54:15;2.30;;;1.03;;
17235;SDS011;8734;59.272;17.780;2022-09-16T14:56:54;2.40;;;1.10;;
17235;SDS011;8734;59.272;17.780;2022-09-16T14:59:25;5.83;;;1.10;;
17235;SDS011;8734;59.272;17.780;2022-09-16T15:01:58;4.90;;;1.20;;
17235;SDS011;8734;59.272;17.780;2022-09-16T15:04:35;2.43;;;1.00;;
17235;SDS011;8734;59.272;17.780;2022-09-16T15:07:07;0.97;;;0.90;;
17235;SDS011;8734;59.272;17.780;2022-09-16T15:09:41;1.93;;;1.00;;
17235;SDS011;8734;59.272;17.780;2022-09-16T15:12:18;0.60;;;0.60;;
17235;SDS011;8734;59.272;17.780;2022-09-16T15:14:52;0.77;;;0.77;;
17235;SDS011;8734;59.272;17.780;2022-09-16T15:17:20;4.63;;;0.70;;
17235;SDS011;8734;59.272;17.780;2022-09-16T15:19:52;1.33;;;0.73;;
17235;SDS011;8734;59.272;17.780;2022-09-16T15:22:23;7.60;;;1.00;;
17235;SDS011;8734;59.272;17.780;2022-09-16T15:24:53;2.07;;;0.80;;
17235;SDS011;8734;59.272;17.780;2022-09-16T15:27:27;1.67;;;0.90;;
17235;SDS011;8734;59.272;17.780;2022-09-16T15:29:59;0.97;;;0.80;;
17235;SDS011;8734;59.272;17.780;2022-09-16T15:32:31;2.13;;;1.00;;
17235;SDS011;8734;59.272;17.780;2022-09-16T15:35:12;0.90;;;0.80;;
17235;SDS011;8734;59.272;17.780;2022-09-16T15:37:47;3.43;;;0.80;;
17235;SDS011;8734;59.272;17.780;2022-09-16T15:40:28;0.70;;;0.63;;
17235;SDS011;8734;59.272;17.780;2022-09-16T15:43:01;1.20;;;0.70;;